sensor_id;sensor_type;location;lat;lon;timestamp;pressure;altitude;pressure_sealevel;temperature;humidity
71857;BME280;63344;46.980;28.882;2023-04-07T00:00:54;100552.47;;;3.42;96.41
71857;BME280;63344;46.980;28.882;2023-04-07T00:03:21;100553.41;;;3.38;95.90
71857;BME280;63344;46.980;28.882;2023-04-07T00:05:49;100548.16;;;3.35;96.12
71857;BME280;63344;46.980;28.882;2023-04-07T00:08:17;100558.66;;;3.35;96.52
71857;BME280;63344;46.980;28.882;2023-04-07T00:10:44;100556.91;;;3.35;96.76
71857;BME280;63344;46.980;28.882;2023-04-07T00:13:11;100554.28;;;3.37;96.69
71857;BME280;63344;46.980;28.882;2023-04-07T00:15:38;100553.41;;;3.38;96.98
71857;BME280;63344;46.980;28.882;2023-04-07T00:18:05;100548.16;;;3.39;97.26
71857;BME280;63344;46.980;28.882;2023-04-07T00:20:33;100546.38;;;3.42;97.46
71857;BME280;63344;46.980;28.882;2023-04-07T00:23:00;100556.81;;;3.45;97.46
71857;BME280;63344;46.980;28.882;2023-04-07T00:25:27;100552.44;;;3.45;97.52
71857;BME280;63344;46.980;28.882;2023-04-07T00:27:54;100548.94;;;3.48;97.78
71857;BME280;63344;46.980;28.882;2023-04-07T00:30:21;100554.19;;;3.48;97.72
71857;BME280;63344;46.980;28.882;2023-04-07T00:32:48;100548.03;;;3.49;98.01
71857;BME280;63344;46.980;28.882;2023-04-07T00:35:17;100549.75;;;3.51;97.70
71857;BME280;63344;46.980;28.882;2023-04-07T00:37:44;100549.72;;;3.53;97.98
71857;BME280;63344;46.980;28.882;2023-04-07T00:40:12;100553.19;;;3.55;98.12
71857;BME280;63344;46.980;28.882;2023-04-07T00:42:39;100551.41;;;3.58;98.25
71857;BME280;63344;46.980;28.882;2023-04-07T00:45:07;100546.16;;;3.58;97.55
71857;BME280;63344;46.980;28.882;2023-04-07T00:47:35;100545.25;;;3.61;97.49
71857;BME280;63344;46.980;28.882;2023-04-07T00:50:03;100551.41;;;3.60;96.69
71857;BME280;63344;46.980;28.882;2023-04-07T00:52:32;100554.97;;;3.56;96.26
71857;BME280;63344;46.980;28.882;2023-04-07T00:54:59;100560.22;;;3.53;96.21
71857;BME280;63344;46.980;28.882;2023-04-07T00:57:27;100555.03;;;3.50;96.00
71857;BME280;63344;46.980;28.882;2023-04-07T00:59:54;100561.19;;;3.46;96.19
71857;BME280;63344;46.980;28.882;2023-04-07T01:02:36;100561.22;;;3.44;96.39
71857;BME280;63344;46.980;28.882;2023-04-07T01:05:14;100564.72;;;3.43;96.67
71857;BME280;63344;46.980;28.882;2023-04-07T01:10:52;100569.09;;;3.44;97.35
71857;BME280;63344;46.980;28.882;2023-04-07T01:13:29;100567.31;;;3.46;97.47
71857;BME280;63344;46.980;28.882;2023-04-07T01:16:00;100569.03;;;3.49;97.87
71857;BME280;63344;46.980;28.882;2023-04-07T01:18:35;100566.34;;;3.53;98.09
71857;BME280;63344;46.980;28.882;2023-04-07T01:21:10;100566.34;;;3.53;97.70
71857;BME280;63344;46.980;28.882;2023-04-07T01:26:35;100561.09;;;3.55;97.74
71857;BME280;63344;46.980;28.882;2023-04-07T01:29:37;100562.84;;;3.54;97.83
71857;BME280;63344;46.980;28.882;2023-04-07T01:32:11;100563.69;;;3.59;97.53
71857;BME280;63344;46.980;28.882;2023-04-07T01:34:39;100573.28;;;3.61;98.10
71857;BME280;63344;46.980;28.882;2023-04-07T01:37:08;100562.75;;;3.62;98.33
71857;BME280;63344;46.980;28.882;2023-04-07T01:39:37;100569.72;;;3.65;98.09
71857;BME280;63344;46.980;28.882;2023-04-07T01:42:06;100567.09;;;3.65;97.98
71857;BME280;63344;46.980;28.882;2023-04-07T01:44:34;100565.34;;;3.65;98.15
71857;BME280;63344;46.980;28.882;2023-04-07T01:47:02;100560.97;;;3.66;98.10
71857;BME280;63344;46.980;28.882;2023-04-07T01:49:30;100566.19;;;3.69;97.91
71857;BME280;63344;46.980;28.882;2023-04-07T01:51:58;100561.84;;;3.68;97.63
71857;BME280;63344;46.980;28.882;2023-04-07T01:54:26;100574.06;;;3.69;97.38
71857;BME280;63344;46.980;28.882;2023-04-07T01:56:54;100567.94;;;3.68;97.18
71857;BME280;63344;46.980;28.882;2023-04-07T01:59:22;100574.97;;;3.68;96.66
71857;BME280;63344;46.980;28.882;2023-04-07T02:01:49;100567.09;;;3.68;96.85
71857;BME280;63344;46.980;28.882;2023-04-07T02:04:59;100561.78;;;3.69;97.15
71857;BME280;63344;46.980;28.882;2023-04-07T02:07:40;100570.53;;;3.71;97.36
71857;BME280;63344;46.980;28.882;2023-04-07T02:10:11;100562.63;;;3.71;97.82
71857;BME280;63344;46.980;28.882;2023-04-07T02:12:39;100571.34;;;3.75;97.53
71857;BME280;63344;46.980;28.882;2023-04-07T02:15:27;100573.13;;;3.76;96.96
71857;BME280;63344;46.980;28.882;2023-04-07T02:17:58;100571.38;;;3.73;96.69
71857;BME280;63344;46.980;28.882;2023-04-07T02:20:27;100581.91;;;3.72;96.65
71857;BME280;63344;46.980;28.882;2023-04-07T02:22:55;100578.38;;;3.73;96.63
71857;BME280;63344;46.980;28.882;2023-04-07T02:25:25;100580.16;;;3.74;96.90
71857;BME280;63344;46.980;28.882;2023-04-07T02:27:54;100576.59;;;3.75;97.33
71857;BME280;63344;46.980;28.882;2023-04-07T02:30:22;100578.31;;;3.79;97.34
71857;BME280;63344;46.980;28.882;2023-04-07T02:32:50;100581.78;;;3.81;97.57
71857;BME280;63344;46.980;28.882;2023-04-07T02:35:17;100585.34;;;3.77;97.89
71857;BME280;63344;46.980;28.882;2023-04-07T02:37:47;100582.69;;;3.80;97.95
71857;BME280;63344;46.980;28.882;2023-04-07T02:40:15;100574.81;;;3.82;98.17
71857;BME280;63344;46.980;28.882;2023-04-07T02:42:42;100577.38;;;3.86;98.01
71857;BME280;63344;46.980;28.882;2023-04-07T02:45:10;100581.72;;;3.87;98.36
71857;BME280;63344;46.980;28.882;2023-04-07T02:47:38;100581.72;;;3.89;98.25
71857;BME280;63344;46.980;28.882;2023-04-07T02:50:06;100587.81;;;3.91;98.16
71857;BME280;63344;46.980;28.882;2023-04-07T02:52:33;100586.94;;;3.92;98.27
71857;BME280;63344;46.980;28.882;2023-04-07T02:55:01;100588.66;;;3.94;98.20
71857;BME280;63344;46.980;28.882;2023-04-07T02:57:28;100589.50;;;3.98;98.02
71857;BME280;63344;46.980;28.882;2023-04-07T02:59:55;100598.22;;;4.00;97.65
71857;BME280;63344;46.980;28.882;2023-04-07T03:02:24;100593.81;;;4.01;97.78
71857;BME280;63344;46.980;28.882;2023-04-07T03:04:51;100587.69;;;4.02;97.83
71857;BME280;63344;46.980;28.882;2023-04-07T03:07:19;100584.19;;;4.01;97.43
71857;BME280;63344;46.980;28.882;2023-04-07T03:09:47;100599.06;;;4.02;97.41
71857;BME280;63344;46.980;28.882;2023-04-07T03:12:14;100595.53;;;4.05;97.73
71857;BME280;63344;46.980;28.882;2023-04-07T03:14:42;100592.88;;;4.06;97.93
71857;BME280;63344;46.980;28.882;2023-04-07T03:17:09;100596.38;;;4.08;97.90
71857;BME280;63344;46.980;28.882;2023-04-07T03:19:36;100605.13;;;4.07;98.06
71857;BME280;63344;46.980;28.882;2023-04-07T03:22:04;100597.22;;;4.09;97.90
71857;BME280;63344;46.980;28.882;2023-04-07T03:24:31;100605.97;;;4.11;98.02
71857;BME280;63344;46.980;28.882;2023-04-07T03:26:58;100610.34;;;4.13;98.39
71857;BME280;63344;46.980;28.882;2023-04-07T03:29:25;100609.41;;;4.16;98.41
71857;BME280;63344;46.980;28.882;2023-04-07T03:31:52;100605.00;;;4.16;98.19
71857;BME280;63344;46.980;28.882;2023-04-07T03:34:19;100609.41;;;4.16;98.31
71857;BME280;63344;46.980;28.882;2023-04-07T03:36:47;100618.16;;;4.18;98.27
71857;BME280;63344;46.980;28.882;2023-04-07T03:39:14;100615.53;;;4.16;97.94
71857;BME280;63344;46.980;28.882;2023-04-07T03:41:42;100621.63;;;4.20;97.83
71857;BME280;63344;46.980;28.882;2023-04-07T03:44:09;100618.16;;;4.18;98.01
71857;BME280;63344;46.980;28.882;2023-04-07T03:46:36;100625.13;;;4.21;97.82
71857;BME280;63344;46.980;28.882;2023-04-07T03:49:04;100624.19;;;4.23;98.16
71857;BME280;63344;46.980;28.882;2023-04-07T03:51:31;100621.56;;;4.23;97.67
71857;BME280;63344;46.980;28.882;2023-04-07T03:53:59;100632.06;;;4.26;98.27
71857;BME280;63344;46.980;28.882;2023-04-07T03:56:27;100638.09;;;4.31;97.88
71857;BME280;63344;46.980;28.882;2023-04-07T03:58:55;100634.59;;;4.34;98.19
71857;BME280;63344;46.980;28.882;2023-04-07T04:01:22;100636.28;;;4.38;98.07
71857;BME280;63344;46.980;28.882;2023-04-07T04:03:49;100643.25;;;4.41;97.69
71857;BME280;63344;46.980;28.882;2023-04-07T04:06:18;100642.31;;;4.45;97.77
71857;BME280;63344;46.980;28.882;2023-04-07T04:08:46;100648.44;;;4.47;97.82
71857;BME280;63344;46.980;28.882;2023-04-07T04:11:14;100653.66;;;4.51;98.05
71857;BME280;63344;46.980;28.882;2023-04-07T04:13:42;100647.50;;;4.52;98.56
71857;BME280;63344;46.980;28.882;2023-04-07T04:16:09;100659.69;;;4.58;98.70
71857;BME280;63344;46.980;28.882;2023-04-07T04:18:40;100657.91;;;4.60;98.55
71857;BME280;63344;46.980;28.882;2023-04-07T04:21:09;100660.53;;;4.60;98.50
71857;BME280;63344;46.980;28.882;2023-04-07T04:23:37;100664.88;;;4.64;98.24
71857;BME280;63344;46.980;28.882;2023-04-07T04:26:06;100669.19;;;4.70;97.72
71857;BME280;63344;46.980;28.882;2023-04-07T04:28:33;100663.91;;;4.71;97.47
71857;BME280;63344;46.980;28.882;2023-04-07T04:31:01;100669.16;;;4.71;97.53
71857;BME280;63344;46.980;28.882;2023-04-07T04:33:30;100669.16;;;4.71;97.27
71857;BME280;63344;46.980;28.882;2023-04-07T04:35:58;100676.06;;;4.77;97.48
71857;BME280;63344;46.980;28.882;2023-04-07T04:38:25;100682.16;;;4.81;97.10
71857;BME280;63344;46.980;28.882;2023-04-07T04:40:54;100684.78;;;4.84;97.25
71857;BME280;63344;46.980;28.882;2023-04-07T04:43:21;100681.22;;;4.86;96.83
71857;BME280;63344;46.980;28.882;2023-04-07T04:45:49;100688.19;;;4.89;97.00
71857;BME280;63344;46.980;28.882;2023-04-07T04:48:17;100685.56;;;4.89;96.76
71857;BME280;63344;46.980;28.882;2023-04-07T04:50:48;100689.00;;;4.94;97.16
71857;BME280;63344;46.980;28.882;2023-04-07T04:53:21;100696.84;;;4.97;97.30
71857;BME280;63344;46.980;28.882;2023-04-07T04:55:49;100687.16;;;4.99;97.30
71857;BME280;63344;46.980;28.882;2023-04-07T04:58:20;100696.78;;;5.02;97.28
71857;BME280;63344;46.980;28.882;2023-04-07T05:00:47;100701.16;;;5.01;97.26
71857;BME280;63344;46.980;28.882;2023-04-07T05:03:15;100689.75;;;5.02;97.52
71857;BME280;63344;46.980;28.882;2023-04-07T05:05:47;100702.00;;;5.05;97.65
71857;BME280;63344;46.980;28.882;2023-04-07T05:08:14;100708.13;;;5.05;97.20
71857;BME280;63344;46.980;28.882;2023-04-07T05:10:43;100707.22;;;5.08;97.56
71857;BME280;63344;46.980;28.882;2023-04-07T05:13:14;100708.91;;;5.12;97.67
71857;BME280;63344;46.980;28.882;2023-04-07T05:15:43;100707.06;;;5.17;97.63
71857;BME280;63344;46.980;28.882;2023-04-07T05:18:11;100713.22;;;5.17;97.93
71857;BME280;63344;46.980;28.882;2023-04-07T05:20:38;100720.19;;;5.22;98.07
71857;BME280;63344;46.980;28.882;2023-04-07T05:23:06;100725.44;;;5.22;97.83
71857;BME280;63344;46.980;28.882;2023-04-07T05:25:37;100730.72;;;5.22;97.95
71857;BME280;63344;46.980;28.882;2023-04-07T05:28:05;100725.47;;;5.20;97.88
71857;BME280;63344;46.980;28.882;2023-04-07T05:30:34;100730.75;;;5.18;97.40
71857;BME280;63344;46.980;28.882;2023-04-07T05:33:01;100733.38;;;5.18;97.85
71857;BME280;63344;46.980;28.882;2023-04-07T05:35:28;100735.91;;;5.25;98.02
71857;BME280;63344;46.980;28.882;2023-04-07T05:37:55;100731.50;;;5.27;98.39
71857;BME280;63344;46.980;28.882;2023-04-07T05:40:24;100740.22;;;5.32;98.30
71857;BME280;63344;46.980;28.882;2023-04-07T05:42:53;100737.50;;;5.35;98.38
71857;BME280;63344;46.980;28.882;2023-04-07T05:45:23;100748.00;;;5.38;98.45
71857;BME280;63344;46.980;28.882;2023-04-07T05:47:50;100742.69;;;5.41;97.91
71857;BME280;63344;46.980;28.882;2023-04-07T05:50:19;100747.03;;;5.45;98.19
71857;BME280;63344;46.980;28.882;2023-04-07T05:52:46;100740.75;;;5.54;98.71
71857;BME280;63344;46.980;28.882;2023-04-07T05:55:14;100748.44;;;5.66;98.96
71857;BME280;63344;46.980;28.882;2023-04-07T05:57:41;100739.47;;;5.76;99.40
71857;BME280;63344;46.980;28.882;2023-04-07T06:00:10;100757.81;;;5.84;99.14
71857;BME280;63344;46.980;28.882;2023-04-07T06:02:37;100758.59;;;5.89;99.21
71857;BME280;63344;46.980;28.882;2023-04-07T06:05:06;100763.78;;;5.94;98.45
71857;BME280;63344;46.980;28.882;2023-04-07T06:07:33;100758.47;;;5.97;98.50
71857;BME280;63344;46.980;28.882;2023-04-07T06:10:04;100764.53;;;6.04;98.09
71857;BME280;63344;46.980;28.882;2023-04-07T06:12:31;100764.34;;;6.13;98.32
71857;BME280;63344;46.980;28.882;2023-04-07T06:14:59;100767.69;;;6.23;98.57
71857;BME280;63344;46.980;28.882;2023-04-07T06:17:27;100773.69;;;6.31;98.36
71857;BME280;63344;46.980;28.882;2023-04-07T06:19:55;100770.16;;;6.33;98.07
71857;BME280;63344;46.980;28.882;2023-04-07T06:22:23;100775.38;;;6.35;97.90
71857;BME280;63344;46.980;28.882;2023-04-07T06:24:50;100771.81;;;6.39;97.91
71857;BME280;63344;46.980;28.882;2023-04-07T06:27:22;100783.19;;;6.41;97.60
71857;BME280;63344;46.980;28.882;2023-04-07T06:29:49;100775.22;;;6.43;97.45
71857;BME280;63344;46.980;28.882;2023-04-07T06:32:16;100793.66;;;6.46;96.70
71857;BME280;63344;46.980;28.882;2023-04-07T06:34:45;100781.41;;;6.43;96.83
71857;BME280;63344;46.980;28.882;2023-04-07T06:37:12;100794.53;;;6.45;96.67
71857;BME280;63344;46.980;28.882;2023-04-07T06:39:41;100798.09;;;6.44;96.25
71857;BME280;63344;46.980;28.882;2023-04-07T06:42:08;100794.59;;;6.42;96.15
71857;BME280;63344;46.980;28.882;2023-04-07T06:44:36;100797.25;;;6.40;96.14
71857;BME280;63344;46.980;28.882;2023-04-07T06:47:03;100800.75;;;6.42;95.89
71857;BME280;63344;46.980;28.882;2023-04-07T06:49:31;100798.09;;;6.44;96.18
71857;BME280;63344;46.980;28.882;2023-04-07T06:52:01;100795.44;;;6.44;96.38
71857;BME280;63344;46.980;28.882;2023-04-07T06:54:28;100804.22;;;6.44;96.23
71857;BME280;63344;46.980;28.882;2023-04-07T06:56:55;100811.28;;;6.44;96.42
71857;BME280;63344;46.980;28.882;2023-04-07T06:59:23;100807.78;;;6.43;96.61
71857;BME280;63344;46.980;28.882;2023-04-07T07:01:51;100811.19;;;6.47;96.67
71857;BME280;63344;46.980;28.882;2023-04-07T07:04:19;100815.53;;;6.51;96.35
71857;BME280;63344;46.980;28.882;2023-04-07T07:06:47;100816.34;;;6.54;96.44
71857;BME280;63344;46.980;28.882;2023-04-07T07:09:24;100815.38;;;6.58;96.57
71857;BME280;63344;46.980;28.882;2023-04-07T07:11:54;100825.88;;;6.62;95.87
71857;BME280;63344;46.980;28.882;2023-04-07T07:14:23;100825.81;;;6.65;95.88
71857;BME280;63344;46.980;28.882;2023-04-07T07:16:50;100832.81;;;6.67;95.71
71857;BME280;63344;46.980;28.882;2023-04-07T07:19:17;100836.31;;;6.69;95.59
71857;BME280;63344;46.980;28.882;2023-04-07T07:21:46;100835.47;;;6.67;95.58
71857;BME280;63344;46.980;28.882;2023-04-07T07:24:13;100832.81;;;6.67;95.13
71857;BME280;63344;46.980;28.882;2023-04-07T07:26:41;100835.47;;;6.66;95.26
71857;BME280;63344;46.980;28.882;2023-04-07T07:29:10;100827.63;;;6.63;95.44
71857;BME280;63344;46.980;28.882;2023-04-07T07:31:37;100834.66;;;6.64;94.94
71857;BME280;63344;46.980;28.882;2023-04-07T07:34:05;100840.75;;;6.67;94.70
71857;BME280;63344;46.980;28.882;2023-04-07T07:36:33;100849.38;;;6.75;94.75
71857;BME280;63344;46.980;28.882;2023-04-07T07:39:01;100839.66;;;6.77;94.73
71857;BME280;63344;46.980;28.882;2023-04-07T07:41:31;100850.09;;;6.84;94.71
71857;BME280;63344;46.980;28.882;2023-04-07T07:44:03;100850.00;;;6.87;94.17
71857;BME280;63344;46.980;28.882;2023-04-07T07:46:37;100859.66;;;6.89;94.30
71857;BME280;63344;46.980;28.882;2023-04-07T07:49:09;100861.38;;;6.92;94.24
71857;BME280;63344;46.980;28.882;2023-04-07T07:51:36;100855.09;;;6.97;93.75
71857;BME280;63344;46.980;28.882;2023-04-07T07:54:04;100855.72;;;7.09;92.99
71857;BME280;63344;46.980;28.882;2023-04-07T07:56:31;100858.16;;;7.21;92.74
71857;BME280;63344;46.980;28.882;2023-04-07T07:58:59;100854.44;;;7.28;92.50
71857;BME280;63344;46.980;28.882;2023-04-07T08:01:26;100859.69;;;7.31;92.21
71857;BME280;63344;46.980;28.882;2023-04-07T08:03:54;100857.88;;;7.33;91.68
71857;BME280;63344;46.980;28.882;2023-04-07T08:06:23;100863.84;;;7.43;90.69
71857;BME280;63344;46.980;28.882;2023-04-07T08:09:16;100869.84;;;7.50;89.46
71857;BME280;63344;46.980;28.882;2023-04-07T08:11:46;100861.88;;;7.51;88.94
71857;BME280;63344;46.980;28.882;2023-04-07T08:14:18;100867.16;;;7.53;87.95
71857;BME280;63344;46.980;28.882;2023-04-07T08:16:46;100864.69;;;7.44;88.32
71857;BME280;63344;46.980;28.882;2023-04-07T08:19:16;100878.84;;;7.41;88.14
71857;BME280;63344;46.980;28.882;2023-04-07T08:21:47;100863.06;;;7.38;88.47
71857;BME280;63344;46.980;28.882;2023-04-07T08:24:15;100866.41;;;7.45;89.14
71857;BME280;63344;46.980;28.882;2023-04-07T08:26:42;100863.66;;;7.51;88.28
71857;BME280;63344;46.980;28.882;2023-04-07T08:29:11;100878.16;;;7.72;87.87
71857;BME280;63344;46.980;28.882;2023-04-07T08:31:41;100866.16;;;7.94;87.92
71857;BME280;63344;46.980;28.882;2023-04-07T08:34:11;100882.97;;;8.29;86.96
71857;BME280;63344;46.980;28.882;2023-04-07T08:36:39;100879.84;;;8.49;84.05
71857;BME280;63344;46.980;28.882;2023-04-07T08:39:11;100887.47;;;8.60;84.75
71857;BME280;63344;46.980;28.882;2023-04-07T08:41:40;100878.38;;;8.70;83.19
71857;BME280;63344;46.980;28.882;2023-04-07T08:44:09;100880.78;;;8.80;83.34
71857;BME280;63344;46.980;28.882;2023-04-07T08:46:39;100872.38;;;8.96;83.06
71857;BME280;63344;46.980;28.882;2023-04-07T08:49:09;100866.59;;;9.13;82.17
71857;BME280;63344;46.980;28.882;2023-04-07T08:51:44;100876.84;;;9.26;81.82
71857;BME280;63344;46.980;28.882;2023-04-07T08:54:17;100879.88;;;9.43;81.95
71857;BME280;63344;46.980;28.882;2023-04-07T08:56:45;100871.19;;;9.66;81.25
71857;BME280;63344;46.980;28.882;2023-04-07T08:59:32;100883.28;;;9.76;78.47
71857;BME280;63344;46.980;28.882;2023-04-07T09:02:04;100874.31;;;9.81;77.20
71857;BME280;63344;46.980;28.882;2023-04-07T09:04:31;100877.66;;;9.86;76.84
71857;BME280;63344;46.980;28.882;2023-04-07T09:06:59;100886.28;;;9.92;76.83
71857;BME280;63344;46.980;28.882;2023-04-07T09:09:28;100884.47;;;9.94;75.58
71857;BME280;63344;46.980;28.882;2023-04-07T09:11:55;100890.78;;;9.90;74.42
71857;BME280;63344;46.980;28.882;2023-04-07T09:14:22;100882.97;;;9.86;74.70
71857;BME280;63344;46.980;28.882;2023-04-07T09:16:49;100881.88;;;9.93;74.75
71857;BME280;63344;46.980;28.882;2023-04-07T09:19:17;100877.22;;;10.00;74.32
71857;BME280;63344;46.980;28.882;2023-04-07T09:21:49;100879.59;;;10.09;74.73
71857;BME280;63344;46.980;28.882;2023-04-07T09:24:25;100883.91;;;10.11;73.84
71857;BME280;63344;46.980;28.882;2023-04-07T09:27:12;100885.03;;;10.04;73.17
71857;BME280;63344;46.980;28.882;2023-04-07T09:29:45;100890.44;;;10.01;73.42
71857;BME280;63344;46.980;28.882;2023-04-07T09:32:33;100889.16;;;10.14;73.19
71857;BME280;63344;46.980;28.882;2023-04-07T09:35:02;100898.25;;;10.34;72.86
71857;BME280;63344;46.980;28.882;2023-04-07T09:37:29;100893.19;;;10.53;72.46
71857;BME280;63344;46.980;28.882;2023-04-07T09:39:57;100892.66;;;10.68;71.26
71857;BME280;63344;46.980;28.882;2023-04-07T09:42:24;100897.88;;;10.71;71.48
71857;BME280;63344;46.980;28.882;2023-04-07T09:44:52;100893.28;;;10.76;71.53
71857;BME280;63344;46.980;28.882;2023-04-07T09:47:26;100886.34;;;10.72;71.64
71857;BME280;63344;46.980;28.882;2023-04-07T09:50:00;100890.63;;;10.50;69.63
71857;BME280;63344;46.980;28.882;2023-04-07T09:52:49;100884.13;;;10.33;70.97
71857;BME280;63344;46.980;28.882;2023-04-07T09:55:22;100887.59;;;10.35;71.34
71857;BME280;63344;46.980;28.882;2023-04-07T09:57:51;100891.16;;;10.34;72.01
71857;BME280;63344;46.980;28.882;2023-04-07T10:00:19;100896.38;;;10.38;71.49
71857;BME280;63344;46.980;28.882;2023-04-07T10:02:47;100900.03;;;10.33;71.17
71857;BME280;63344;46.980;28.882;2023-04-07T10:05:16;100896.91;;;10.21;70.75
71857;BME280;63344;46.980;28.882;2023-04-07T10:07:44;100900.81;;;10.09;71.39
71857;BME280;63344;46.980;28.882;2023-04-07T10:10:27;100901.03;;;10.03;71.95
71857;BME280;63344;46.980;28.882;2023-04-07T10:12:59;100901.31;;;9.93;72.39
71857;BME280;63344;46.980;28.882;2023-04-07T10:15:58;100915.03;;;9.78;72.12
71857;BME280;63344;46.980;28.882;2023-04-07T10:18:28;100915.59;;;9.60;72.21
71857;BME280;63344;46.980;28.882;2023-04-07T10:21:03;100914.47;;;9.39;73.42
71857;BME280;63344;46.980;28.882;2023-04-07T10:23:39;100912.28;;;9.22;75.02
71857;BME280;63344;46.980;28.882;2023-04-07T10:26:14;100917.28;;;9.01;76.02
71857;BME280;63344;46.980;28.882;2023-04-07T10:28:47;100933.47;;;8.90;76.59
71857;BME280;63344;46.980;28.882;2023-04-07T10:31:22;100931.97;;;8.80;77.67
71857;BME280;63344;46.980;28.882;2023-04-07T10:33:51;100925.69;;;8.84;78.46
71857;BME280;63344;46.980;28.882;2023-04-07T10:36:20;100919.66;;;9.10;79.10
71857;BME280;63344;46.980;28.882;2023-04-07T10:41:39;100916.22;;;9.97;77.14
71857;BME280;63344;46.980;28.882;2023-04-07T10:47:10;100934.03;;;10.75;74.75
71857;BME280;63344;46.980;28.882;2023-04-07T10:49:38;100915.03;;;11.36;71.72
71857;BME280;63344;46.980;28.882;2023-04-07T10:54:39;100919.88;;;11.49;71.37
71857;BME280;63344;46.980;28.882;2023-04-07T10:57:09;100909.56;;;12.09;70.62
71857;BME280;63344;46.980;28.882;2023-04-07T11:00:13;100906.50;;;12.83;64.74
71857;BME280;63344;46.980;28.882;2023-04-07T11:04:53;100907.72;;;12.11;65.06
71857;BME280;63344;46.980;28.882;2023-04-07T11:07:42;100912.53;;;12.01;64.73
71857;BME280;63344;46.980;28.882;2023-04-07T11:10:11;100910.16;;;12.38;63.13
71857;BME280;63344;46.980;28.882;2023-04-07T11:12:39;100917.25;;;12.80;63.14
71857;BME280;63344;46.980;28.882;2023-04-07T11:15:19;100914.34;;;13.06;62.58
71857;BME280;63344;46.980;28.882;2023-04-07T11:18:17;100916.88;;;12.68;61.53
71857;BME280;63344;46.980;28.882;2023-04-07T11:23:21;100910.31;;;11.90;61.98
71857;BME280;63344;46.980;28.882;2023-04-07T11:25:59;100912.94;;;11.68;63.94
71857;BME280;63344;46.980;28.882;2023-04-07T11:28:29;100913.56;;;11.51;64.87
71857;BME280;63344;46.980;28.882;2023-04-07T11:30:57;100917.09;;;11.28;64.94
71857;BME280;63344;46.980;28.882;2023-04-07T11:33:29;100914.19;;;11.11;65.63
71857;BME280;63344;46.980;28.882;2023-04-07T11:35:59;100917.34;;;10.97;66.15
71857;BME280;63344;46.980;28.882;2023-04-07T11:38:28;100917.00;;;10.81;65.45
71857;BME280;63344;46.980;28.882;2023-04-07T11:40:56;100915.66;;;10.69;65.41
71857;BME280;63344;46.980;28.882;2023-04-07T11:43:26;100917.75;;;10.60;65.81
71857;BME280;63344;46.980;28.882;2023-04-07T11:46:07;100911.91;;;10.48;66.87
71857;BME280;63344;46.980;28.882;2023-04-07T11:48:37;100912.94;;;10.44;67.52
71857;BME280;63344;46.980;28.882;2023-04-07T11:51:06;100919.88;;;10.48;67.80
71857;BME280;63344;46.980;28.882;2023-04-07T11:53:41;100919.06;;;10.46;66.94
71857;BME280;63344;46.980;28.882;2023-04-07T11:56:13;100915.69;;;10.43;67.02
71857;BME280;63344;46.980;28.882;2023-04-07T11:58:48;100915.88;;;10.36;66.86
71857;BME280;63344;46.980;28.882;2023-04-07T12:01:15;100916.00;;;10.32;66.99
71857;BME280;63344;46.980;28.882;2023-04-07T12:03:57;100920.41;;;10.33;67.12
71857;BME280;63344;46.980;28.882;2023-04-07T12:06:33;100924.03;;;10.30;67.73
71857;BME280;63344;46.980;28.882;2023-04-07T12:09:01;100922.34;;;10.26;67.85
71857;BME280;63344;46.980;28.882;2023-04-07T12:11:30;100918.03;;;10.24;67.89
71857;BME280;63344;46.980;28.882;2023-04-07T12:14:03;100921.66;;;10.21;67.73
71857;BME280;63344;46.980;28.882;2023-04-07T12:16:31;100924.59;;;10.12;68.00
71857;BME280;63344;46.980;28.882;2023-04-07T12:18:58;100923.13;;;10.03;68.96
71857;BME280;63344;46.980;28.882;2023-04-07T12:21:25;100920.69;;;9.95;70.12
71857;BME280;63344;46.980;28.882;2023-04-07T12:23:53;100926.16;;;9.91;70.32
71857;BME280;63344;46.980;28.882;2023-04-07T12:26:20;100930.88;;;9.81;71.43
71857;BME280;63344;46.980;28.882;2023-04-07T12:28:49;100940.84;;;9.73;72.09
71857;BME280;63344;46.980;28.882;2023-04-07T12:31:16;100941.31;;;9.57;74.72
71857;BME280;63344;46.980;28.882;2023-04-07T12:33:47;100948.19;;;9.33;76.16
71857;BME280;63344;46.980;28.882;2023-04-07T12:36:17;100951.44;;;9.12;77.92
71857;BME280;63344;46.980;28.882;2023-04-07T12:39:01;100958.13;;;8.92;79.53
71857;BME280;63344;46.980;28.882;2023-04-07T12:41:28;100957.66;;;8.76;80.72
71857;BME280;63344;46.980;28.882;2023-04-07T12:43:56;100972.97;;;8.65;82.76
71857;BME280;63344;46.980;28.882;2023-04-07T12:46:26;100963.69;;;8.49;83.20
71857;BME280;63344;46.980;28.882;2023-04-07T12:48:53;100957.66;;;8.41;83.84
71857;BME280;63344;46.980;28.882;2023-04-07T12:51:21;100960.69;;;8.25;82.75
71857;BME280;63344;46.980;28.882;2023-04-07T12:53:49;100951.28;;;8.12;83.39
71857;BME280;63344;46.980;28.882;2023-04-07T12:56:17;100967.31;;;8.04;85.08
71857;BME280;63344;46.980;28.882;2023-04-07T12:58:49;100969.25;;;7.97;86.21
71857;BME280;63344;46.980;28.882;2023-04-07T13:01:16;100971.91;;;7.97;86.77
71857;BME280;63344;46.980;28.882;2023-04-07T13:03:44;100968.34;;;7.98;87.44
71857;BME280;63344;46.980;28.882;2023-04-07T13:06:12;100970.13;;;7.96;86.78
71857;BME280;63344;46.980;28.882;2023-04-07T13:08:42;100968.47;;;7.92;87.04
71857;BME280;63344;46.980;28.882;2023-04-07T13:11:10;100979.13;;;7.89;87.87
71857;BME280;63344;46.980;28.882;2023-04-07T13:13:38;100970.44;;;7.83;88.64
71857;BME280;63344;46.980;28.882;2023-04-07T13:16:06;100973.22;;;7.76;89.99
71857;BME280;63344;46.980;28.882;2023-04-07T13:18:34;100973.38;;;7.69;90.85
71857;BME280;63344;46.980;28.882;2023-04-07T13:21:02;100976.09;;;7.67;90.74